• Join FlightAware (Why Join?)
  • Login
  • US Flag 
09:51AM EST


 

Airport Tracker/Info


-or-


 

Live Flight TrackerFlight Track Log ✈ UAL4180 ✈ 29-Apr-2013 ✈ KIAH - KMKE

Flight Track Log - Related Links

Times and Time Zones

All times are in EDT time to prevent confusion due to time zone crossing. See the UAL4180 flight status page for this flight to view local times or setup timezone preferences in your user account.

Time Position Orientation Groundspeed Altitude Reporting Facility
EDT Latitude Longitude Course Direction KTS MPH feet Rate Location/Type
12:11PM 29.9803 -95.2956 27° Northeast 173 199 900  Level Houston Center
12:12PM 30.0411 -95.2711 19° North 203 234 3,500 1,920 Climbing Houston Center
12:13PM 30.0494 -95.2672 22° Northeast 187 215 3,900 1,200 Climbing Houston Center
12:13PM 30.0992 -95.2617 North 241 277 4,800 1,200 Climbing Houston Center
12:14PM 30.1144 -95.2583 11° North 237 273 5,200 2,220 Climbing Houston Center
12:14PM 30.1775 -95.2472 North 277 319 7,100 2,100 Climbing Houston Center
12:15PM 30.4069 -95.1632 23° Northeast  Level FlightAware Approximate
12:15PM 30.1897 -95.2461 North 269 310 7,400  Level Houston Center
12:16PM 30.5078 -95.1053 27° Northeast  Level FlightAware Approximate
12:16PM 30.2664 -95.2311 10° North 278 320 9,800  Level Houston Center
12:17PM 30.3611 -95.1953 18° North 298 343 11,500 960 Climbing Houston Center
12:18PM 30.4492 -95.1600 19° North 343 395 11,900 660 Climbing Houston Center
12:19PM 30.5439 -95.1028 27° Northeast 378 435 12,900 1,380 Climbing Houston Center
12:20PM 30.6544 -95.0350 28° Northeast 373 429 14,800 1,500 Climbing Houston Center
12:21PM 30.7472 -94.9764 28° Northeast 377 434 16,100 1,260 Climbing Houston Center
12:22PM 30.8392 -94.9192 28° Northeast 375 432 17,500 1,320 Climbing Houston Center
12:23PM 30.9308 -94.8625 28° Northeast 374 430 18,900 1,320 Climbing Houston Center
12:24PM 31.0031 -94.8178 28° Northeast 369 425 20,000 1,260 Climbing Fort Worth Center
12:25PM 31.0978 -94.7594 28° Northeast 369 425 21,300 1,320 Climbing Fort Worth Center
12:26PM 31.1883 -94.6986 30° Northeast 369 425 22,700 1,380 Climbing Fort Worth Center
12:27PM 31.2808 -94.6350 30° Northeast 374 430 24,100 1,380 Climbing Fort Worth Center
12:28PM 31.3733 -94.5714 30° Northeast 374 430 25,500 1,440 Climbing Fort Worth Center
12:29PM 31.4742 -94.5003 31° Northeast 374 430 27,000 1,380 Climbing Fort Worth Center
12:30PM 31.5625 -94.4414 30° Northeast 369 425 28,300 1,320 Climbing Fort Worth Center
12:31PM 31.6528 -94.3775 31° Northeast 369 425 29,700 1,260 Climbing Fort Worth Center
12:32PM 31.7411 -94.3183 30° Northeast 369 425 30,900 1,500 Climbing Fort Worth Center
12:33PM 31.8294 -94.2542 32° Northeast 369 425 32,700 1,020 Climbing Fort Worth Center
12:34PM 31.9175 -94.1925 31° Northeast 364 419 33,000 120 Climbing Fort Worth Center
12:35PM 32.0139 -94.1231 31° Northeast 378 435 33,000 240 Level Fort Worth Center
12:36PM 32.1186 -94.0531 30° Northeast 404 465 33,500 900 Climbing Fort Worth Center
12:37PM 32.2083 -93.9833 33° Northeast 422 486 34,800 720 Climbing Fort Worth Center
12:38PM 32.3064 -93.9061 34° Northeast 422 486 35,000 60 Climbing Fort Worth Center
12:39PM 32.4133 -93.8403 27° Northeast 422 486 35,000  Level Fort Worth Center
12:40PM 32.5194 -93.7622 32° Northeast 427 491 35,000  Level Fort Worth Center
12:41PM 32.6239 -93.6864 31° Northeast 438 504 35,000  Level Fort Worth Center
12:42PM 32.7300 -93.6131 30° Northeast 438 504 35,000  Level Fort Worth Center
12:43PM 32.8342 -93.5392 31° Northeast 438 504 35,000  Level Fort Worth Center
12:44PM 32.9383 -93.4631 32° Northeast 438 504 35,000  Level Fort Worth Center
12:45PM 33.0444 -93.3864 31° Northeast 443 510 35,000  Level Fort Worth Center
12:46PM 33.1506 -93.3097 31° Northeast 438 504 35,000  Level Fort Worth Center
12:47PM 33.2525 -93.2356 31° Northeast 438 504 35,000  Level Fort Worth Center
12:48PM 33.3606 -93.1583 31° Northeast 438 504 35,000  Level Fort Worth Center
12:49PM 33.4642 -93.0811 32° Northeast 438 504 35,000  Level Fort Worth Center
12:49PM 33.5008 -93.0575 28° Northeast 440 506 35,000  Level Memphis Center
12:50PM 33.6047 -92.9811 31° Northeast 462 532 35,000  Level Memphis Center
12:51PM 33.7106 -92.9042 31° Northeast 452 520 35,000  Level Memphis Center
12:52PM 33.8164 -92.8300 30° Northeast 445 512 35,000  Level Memphis Center
12:53PM 33.9181 -92.7528 32° Northeast 434 499 35,000  Level Memphis Center
12:54PM 34.0219 -92.6753 32° Northeast 434 499 35,000  Level Memphis Center
12:55PM 34.1233 -92.6003 31° Northeast 434 499 35,000  Level Memphis Center
12:56PM 34.2250 -92.5275 31° Northeast 434 499 35,000  Level Memphis Center
12:57PM 34.3306 -92.4522 30° Northeast 434 499 35,000  Level Memphis Center
12:58PM 34.4300 -92.3742 33° Northeast 434 499 35,000  Level Memphis Center
12:59PM 34.5311 -92.3008 31° Northeast 428 493 35,000  Level Memphis Center
01:00PM 34.6325 -92.2225 32° Northeast 428 493 35,000  Level Memphis Center
01:01PM 34.7439 -92.1667 22° Northeast 433 498 35,000  Level Memphis Center
01:02PM 34.8531 -92.1183 20° North 423 487 35,000  Level Memphis Center
01:03PM 34.9664 -92.0728 18° North 423 487 35,000  Level Memphis Center
01:04PM 35.0797 -92.0292 17° North 423 487 35,000  Level Memphis Center
01:05PM 35.1825 -91.9881 18° North 421 484 35,000  Level Memphis Center
01:06PM 35.2997 -91.9419 18° North 429 494 35,000  Level Memphis Center
01:07PM 35.4131 -91.8958 18° North 427 491 35,000  Level Memphis Center
01:08PM 35.5242 -91.8519 18° North 420 483 35,000  Level Memphis Center
01:09PM 35.6372 -91.8081 18° North 421 484 35,000  Level Memphis Center
01:10PM 35.7631 -91.7589 18° North 426 490 35,000  Level Memphis Center
01:11PM 35.8781 -91.7147 17° North 426 490 35,000 600 Level Memphis Center
01:12PM 35.9850 -91.6703 19° North 413 475 36,300 960 Climbing Memphis Center
01:13PM 36.0856 -91.6283 19° North 399 459 37,000 300 Climbing Memphis Center
01:14PM 36.1922 -91.5864 18° North 399 459 37,000  Level Memphis Center
01:15PM 36.3011 -91.5442 17° North 399 459 37,000  Level Memphis Center
01:16PM 36.4097 -91.4992 18° North 405 466 37,000  Level Memphis Center
01:18PM 36.6381 -91.4083 18° North 419 482 37,000  Level Kansas City Center
01:19PM 36.7719 -91.3553 18° North 420 483 37,000  Level Kansas City Center
01:20PM 36.8831 -91.3092 18° North 420 483 37,000  Level Kansas City Center
01:21PM 36.9944 -91.2644 18° North 420 483 37,000  Level Kansas City Center
01:22PM 37.1083 -91.2175 18° North 425 489 37,000  Level Kansas City Center
01:23PM 37.2203 -91.1703 19° North 425 489 37,000  Level Kansas City Center
01:24PM 37.3314 -91.1247 18° North 422 486 37,000  Level Kansas City Center
01:25PM 37.4653 -91.0697 18° North 422 486 37,000  Level Kansas City Center
01:27PM 37.5775 -91.0236 18° North 424 488 37,000  Level Kansas City Center
01:28PM 37.6833 -90.9800 18° North 424 488 37,000  Level Kansas City Center
01:29PM 37.7956 -90.9328 18° North 425 489 37,000  Level Kansas City Center
01:30PM 37.9081 -90.8869 18° North 425 489 37,000  Level Kansas City Center
01:31PM 38.0428 -90.8297 18° North 425 489 37,000  Level Kansas City Center
01:32PM 38.1561 -90.7825 18° North 427 491 37,000  Level Kansas City Center
01:33PM 38.2686 -90.7350 18° North 426 490 37,000  Level Kansas City Center
01:34PM 38.3822 -90.6858 19° North 428 493 37,000  Level Kansas City Center
01:35PM 38.5008 -90.6364 18° North 428 493 37,000  Level Kansas City Center
01:36PM 38.6144 -90.5883 18° North 429 494 37,000  Level Kansas City Center
01:37PM 38.7297 -90.5406 18° North 433 498 37,000  Level Kansas City Center
01:38PM 38.8647 -90.4806 19° North 430 495 37,000  Level Kansas City Center
01:39PM 38.9697 -90.3942 33° Northeast 431 496 37,000  Level Kansas City Center
01:40PM 39.0744 -90.3103 32° Northeast 439 505 37,000  Level Kansas City Center
01:41PM 39.1772 -90.2250 33° Northeast 438 504 37,000  Level Kansas City Center
01:42PM 39.2803 -90.1406 32° Northeast 439 505 37,000  Level Kansas City Center
01:43PM 39.3839 -90.0558 32° Northeast 441 507 37,000  Level Kansas City Center
01:44PM 39.4869 -89.9694 33° Northeast 440 506 37,000  Level Kansas City Center
01:45PM 39.5908 -89.8850 32° Northeast 441 507 37,000  Level Kansas City Center
01:46PM 39.7142 -89.7811 33° Northeast 441 507 37,000  Level Kansas City Center
01:47PM 39.8108 -89.7003 33° Northeast 441 507 37,000  Level Kansas City Center
01:48PM 39.9125 -89.6100 34° Northeast 442 509 37,000  Level Kansas City Center
01:49PM 39.9903 -89.5350 36° Northeast 443 510 37,000 -180 Level Chicago Center
01:50PM 40.1092 -89.4211 36° Northeast 443 510 36,700 -540 Descending Chicago Center
01:51PM 40.2106 -89.3244 36° Northeast 454 522 35,900 -720 Descending Chicago Center
01:52PM 40.3125 -89.2275 36° Northeast 455 524 35,200 -720 Descending Chicago Center
01:53PM 40.4125 -89.1297 37° Northeast 452 520 34,500 -720 Descending Chicago Center
01:54PM 40.5125 -89.0331 36° Northeast 449 517 33,800 -720 Descending Chicago Center
01:55PM 40.6117 -88.9378 36° Northeast 445 512 33,100 -420 Descending Chicago Center
01:56PM 40.7197 -88.8328 36° Northeast 441 507 33,000 -60 Descending Chicago Center
01:57PM 40.8136 -88.7408 37° Northeast 427 491 33,000  Level Chicago Center
01:58PM 40.9422 -88.6653 24° Northeast 424 488 33,000  Level Chicago Center
01:59PM 41.0494 -88.6017 24° Northeast 423 487 33,000  Level Chicago Center
02:00PM 41.1594 -88.5394 23° Northeast 428 493 33,000 -300 Level Chicago Center
02:01PM 41.2711 -88.4756 23° Northeast 436 502 32,500 -1,260 Descending Chicago Center
02:02PM 41.3797 -88.4131 23° Northeast 426 490 30,500 -2,400 Descending Chicago Center
02:03PM 41.4850 -88.3522 23° Northeast 413 475 27,600 -2,940 Descending Chicago Center
02:05PM 41.5953 -88.3183 13° North 410 472 24,500 -1,800 Descending Chicago Center
02:06PM 41.7247 -88.3161 North 390 449 24,000 -480 Descending Chicago Center
02:07PM 41.8428 -88.3147 North 417 480 23,600 -720 Descending Chicago Center
02:08PM 41.9619 -88.3117 North 427 491 22,600 -1,020 Descending Chicago Center
02:09PM 42.0817 -88.3100 North 430 495 21,500 -1,020 Descending Chicago Center
02:10PM 42.2008 -88.3103 360° North 430 495 20,500 -960 Descending Chicago Center
02:11PM 42.3206 -88.3081 North 431 496 19,600 -1,320 Descending Chicago Center
02:12PM 42.4447 -88.3056 North 422 486 17,900 -2,280 Descending Chicago Center
02:13PM 42.5506 -88.3056 360° North 385 443 15,000 -3,420 Descending Chicago Center
02:14PM 42.6722 -88.2986 North 378 435 10,900 -2,340 Descending Chicago Center
02:15PM 42.7386 -88.1986 48° Northeast 346 398 10,200 -840 Descending Chicago Center
02:16PM 42.7917 -88.1156 49° Northeast 301 346 9,200 -1,320 Descending Chicago Center
02:17PM 42.8322 -88.0269 58° Northeast 281 323 7,600 -1,140 Descending Chicago Center
02:18PM 42.8606 -87.9311 68° East 274 315 6,900 -720 Descending Chicago Center
02:19PM 42.8853 -87.8425 69° East 254 292 6,200 -1,500 Descending Chicago Center
02:20PM 42.9153 -87.7375 69° East 254 292 3,900 -1,860 Descending Chicago Center
02:21PM 42.9664 -87.7419 356° North 228 262 2,500 -960 Descending Chicago Center
02:22PM 42.9653 -87.8139 269° West 202 232 2,000 -540 Descending Chicago Center
02:23PM 42.9503 -87.8633 248° West 178 205 1,500 -540 Descending Chicago Center
02:25PM 42.9333 -87.8833 255° West  Level FlightAware Approximate
02:32PM 42.9469 -87.8971 255° West  Level Estimated